createdAt,value
2019-01-30T00:00:52.028Z,24.38
2019-01-30T00:03:55.623Z,24.36
2019-01-30T00:07:01.178Z,24.35
2019-01-30T00:10:05.315Z,24.34
2019-01-30T00:13:10.863Z,24.34
2019-01-30T00:16:14.358Z,24.35
2019-01-30T00:19:17.849Z,24.33
2019-01-30T00:22:21.339Z,24.32
2019-01-30T00:25:24.858Z,24.30
2019-01-30T00:28:28.318Z,24.30
2019-01-30T00:31:31.860Z,24.28
2019-01-30T00:34:35.361Z,24.29
2019-01-30T00:37:38.844Z,24.28
2019-01-30T00:40:42.375Z,24.27
2019-01-30T00:43:45.873Z,24.27
2019-01-30T00:46:49.377Z,24.27
2019-01-30T00:49:52.867Z,24.27
2019-01-30T00:52:56.275Z,24.25
2019-01-30T00:55:59.857Z,24.23
2019-01-30T00:59:03.288Z,24.24
2019-01-30T01:02:06.759Z,24.23
2019-01-30T01:05:10.420Z,24.20
2019-01-30T01:08:13.889Z,24.21
2019-01-30T01:11:17.366Z,24.19
2019-01-30T01:14:20.876Z,24.18
2019-01-30T01:17:24.369Z,24.16
2019-01-30T01:20:27.859Z,24.15
2019-01-30T01:23:31.373Z,24.15
2019-01-30T01:26:34.789Z,24.14
2019-01-30T01:29:38.384Z,24.13
2019-01-30T01:32:41.875Z,24.10
2019-01-30T01:35:45.387Z,24.08
2019-01-30T01:38:49.895Z,24.07
2019-01-30T01:41:53.333Z,24.07
2019-01-30T01:44:56.946Z,24.08
2019-01-30T01:48:00.398Z,24.07
2019-01-30T01:51:04.917Z,24.05
2019-01-30T01:54:08.436Z,24.06
2019-01-30T01:57:11.867Z,24.05
2019-01-30T02:00:17.275Z,24.06
2019-01-30T02:03:22.994Z,24.04
2019-01-30T02:06:26.522Z,24.04
2019-01-30T02:09:30.025Z,24.04
2019-01-30T02:12:33.526Z,24.03
2019-01-30T02:15:37.025Z,24.04
2019-01-30T02:18:40.527Z,24.04
2019-01-30T02:21:44.044Z,24.04
2019-01-30T02:24:47.532Z,24.01
2019-01-30T02:27:51.021Z,24.00
2019-01-30T02:30:54.444Z,24.01
2019-01-30T02:33:57.944Z,24.00
2019-01-30T02:37:01.478Z,23.99
2019-01-30T02:40:06.368Z,23.98
2019-01-30T02:43:09.961Z,23.96
2019-01-30T02:46:14.495Z,23.96
2019-01-30T02:49:17.994Z,23.95
2019-01-30T02:52:21.510Z,23.93
2019-01-30T02:55:24.940Z,23.92
2019-01-30T02:58:28.500Z,23.92
2019-01-30T03:01:33.647Z,23.92
2019-01-30T03:04:37.148Z,23.89
2019-01-30T03:07:40.642Z,23.89
2019-01-30T03:10:44.146Z,23.88
2019-01-30T03:13:47.653Z,23.87
2019-01-30T03:16:51.148Z,23.87
2019-01-30T03:19:54.585Z,23.86
2019-01-30T03:22:58.043Z,23.85
2019-01-30T03:26:01.569Z,23.86
2019-01-30T03:29:05.102Z,23.85
2019-01-30T03:32:08.597Z,23.86
2019-01-30T03:35:12.051Z,23.85
2019-01-30T03:38:15.480Z,23.85
2019-01-30T03:41:19.964Z,23.86
2019-01-30T03:44:23.385Z,23.85
2019-01-30T03:47:26.871Z,23.83
2019-01-30T03:50:30.305Z,23.84
2019-01-30T03:53:35.800Z,23.83
2019-01-30T03:56:39.343Z,23.84
2019-01-30T03:59:42.826Z,23.83
2019-01-30T04:02:46.354Z,23.83
2019-01-30T04:05:49.843Z,23.82
2019-01-30T04:08:53.322Z,23.80
2019-01-30T04:11:56.813Z,23.80
2019-01-30T04:15:00.320Z,23.81
2019-01-30T04:18:03.835Z,23.80
2019-01-30T04:21:08.344Z,23.80
2019-01-30T04:24:11.847Z,23.79
2019-01-30T04:27:15.351Z,23.78
2019-01-30T04:30:23.684Z,23.78
2019-01-30T04:33:27.175Z,23.77
2019-01-30T04:36:30.680Z,23.76
2019-01-30T04:39:34.167Z,23.75
2019-01-30T04:42:37.687Z,23.75
2019-01-30T04:45:41.105Z,23.75
2019-01-30T04:48:44.707Z,23.76
2019-01-30T04:51:49.140Z,23.74
2019-01-30T04:54:52.585Z,23.75
2019-01-30T04:57:58.206Z,23.74
2019-01-30T05:01:01.142Z,23.73
2019-01-30T05:04:04.834Z,23.74
2019-01-30T05:07:08.440Z,23.72
2019-01-30T05:10:12.977Z,23.72
2019-01-30T05:13:16.465Z,23.73
2019-01-30T05:16:19.901Z,23.74
2019-01-30T05:19:23.353Z,23.74
2019-01-30T05:22:26.952Z,23.72
2019-01-30T05:25:31.054Z,23.71
2019-01-30T05:28:34.609Z,23.72
2019-01-30T05:31:39.105Z,23.71
2019-01-30T05:34:43.627Z,23.70
2019-01-30T05:37:51.256Z,23.70
2019-01-30T05:40:53.503Z,23.69
2019-01-30T05:43:57.059Z,23.68
2019-01-30T05:47:00.552Z,23.68
2019-01-30T05:50:04.413Z,23.68
2019-01-30T05:53:07.900Z,23.68
2019-01-30T05:56:11.425Z,23.66
2019-01-30T05:59:15.930Z,23.66
2019-01-30T06:02:19.460Z,23.66
2019-01-30T06:05:22.937Z,23.63
2019-01-30T06:08:26.441Z,23.64
2019-01-30T06:11:30.966Z,23.63
2019-01-30T06:14:34.471Z,23.64
2019-01-30T06:17:38.993Z,23.61
2019-01-30T06:20:42.479Z,23.63
2019-01-30T06:23:46.902Z,23.61
2019-01-30T06:26:50.611Z,23.60
2019-01-30T06:29:54.020Z,23.60
2019-01-30T06:32:59.585Z,23.61
2019-01-30T06:36:03.219Z,23.62
2019-01-30T06:39:07.912Z,23.63
2019-01-30T06:42:11.357Z,23.61
2019-01-30T06:45:14.800Z,23.61
2019-01-30T06:48:18.313Z,23.61
2019-01-30T06:51:21.796Z,23.65
2019-01-30T06:54:25.303Z,23.62
2019-01-30T06:57:28.853Z,23.60
2019-01-30T07:00:32.300Z,23.61
2019-01-30T07:03:35.811Z,23.64
2019-01-30T07:06:39.240Z,23.64
2019-01-30T07:09:42.845Z,23.61
2019-01-30T07:12:46.308Z,23.61
2019-01-30T07:15:49.825Z,23.60
2019-01-30T07:18:53.267Z,23.58
2019-01-30T07:21:56.721Z,23.56
2019-01-30T07:28:02.792Z,23.58
2019-01-30T07:31:06.281Z,23.56
2019-01-30T07:34:09.704Z,23.54
2019-01-30T07:37:13.201Z,23.54
2019-01-30T07:40:16.719Z,23.54
2019-01-30T07:43:20.135Z,23.60
2019-01-30T07:46:23.572Z,23.62
2019-01-30T07:49:27.098Z,23.68
2019-01-30T07:52:32.807Z,23.64
2019-01-30T07:55:36.530Z,23.68
2019-01-30T07:58:40.064Z,23.67
2019-01-30T08:01:43.570Z,23.67
2019-01-30T08:04:47.268Z,23.66
2019-01-30T08:07:52.879Z,23.66
2019-01-30T08:10:56.407Z,23.68
2019-01-30T08:14:01.835Z,23.72
2019-01-30T08:17:05.150Z,23.75
2019-01-30T08:20:10.766Z,23.79
2019-01-30T08:23:14.515Z,23.82
2019-01-30T08:26:18.145Z,23.84
2019-01-30T08:29:21.603Z,23.87
2019-01-30T08:32:25.485Z,23.87
2019-01-30T08:35:30.117Z,23.88
2019-01-30T08:38:33.556Z,23.88
2019-01-30T08:41:37.041Z,23.92
2019-01-30T08:44:46.864Z,23.97
2019-01-30T08:47:45.635Z,23.94
2019-01-30T08:50:49.075Z,23.92
2019-01-30T08:53:52.593Z,23.96
2019-01-30T08:56:56.097Z,23.97
2019-01-30T08:59:59.592Z,23.99
2019-01-30T09:03:14.167Z,23.99
2019-01-30T09:06:09.357Z,24.00
2019-01-30T09:09:12.847Z,24.00
2019-01-30T09:12:16.367Z,24.04
2019-01-30T09:15:21.075Z,24.05
2019-01-30T09:18:24.519Z,24.07
2019-01-30T09:21:28.000Z,24.06
2019-01-30T09:24:31.411Z,24.09
2019-01-30T09:27:34.940Z,24.11
2019-01-30T09:30:39.074Z,24.09
2019-01-30T09:33:42.504Z,24.12
2019-01-30T09:36:47.027Z,24.14
2019-01-30T09:39:50.467Z,24.15
2019-01-30T09:42:54.074Z,24.15
2019-01-30T09:45:57.488Z,24.16
2019-01-30T09:49:01.185Z,24.15
2019-01-30T09:52:04.733Z,24.16
2019-01-30T09:55:09.216Z,24.14
2019-01-30T09:58:12.680Z,24.15
2019-01-30T10:01:16.233Z,24.15
2019-01-30T10:04:19.701Z,24.14
2019-01-30T10:07:23.171Z,24.11
2019-01-30T10:10:31.573Z,24.12
2019-01-30T10:13:37.373Z,24.14
2019-01-30T10:16:40.680Z,24.15
2019-01-30T10:19:44.129Z,24.12
2019-01-30T10:22:47.720Z,24.14
2019-01-30T10:25:51.222Z,24.12
2019-01-30T10:28:54.723Z,24.15
2019-01-30T10:31:58.204Z,24.16
2019-01-30T10:35:01.732Z,24.17
2019-01-30T10:38:05.612Z,24.18
2019-01-30T10:41:09.049Z,24.20
2019-01-30T10:44:12.553Z,24.23
2019-01-30T10:47:16.449Z,24.22
2019-01-30T10:50:21.864Z,24.23
2019-01-30T10:53:25.305Z,24.25
2019-01-30T10:56:28.907Z,24.23
2019-01-30T10:59:32.392Z,24.26
2019-01-30T11:02:35.905Z,24.25
2019-01-30T11:05:39.419Z,24.24
2019-01-30T11:08:42.897Z,24.24
2019-01-30T11:11:46.499Z,24.28
2019-01-30T11:14:53.200Z,24.30
2019-01-30T11:17:56.868Z,24.33
2019-01-30T11:21:00.406Z,24.34
2019-01-30T11:24:04.001Z,24.35
2019-01-30T11:27:08.438Z,24.37
2019-01-30T11:30:12.239Z,24.37
2019-01-30T11:33:17.029Z,24.36
2019-01-30T11:36:20.547Z,24.33
2019-01-30T11:39:24.136Z,24.33
2019-01-30T11:42:28.027Z,24.31
2019-01-30T11:45:36.649Z,24.32
2019-01-30T11:48:40.259Z,24.34
2019-01-30T11:51:43.818Z,24.36
2019-01-30T11:54:47.303Z,24.36
2019-01-30T11:57:50.810Z,24.38
2019-01-30T12:01:03.568Z,24.37
2019-01-30T12:04:17.437Z,24.37
2019-01-30T12:07:12.357Z,24.35
2019-01-30T12:10:15.867Z,24.34
2019-01-30T12:13:19.579Z,24.31
2019-01-30T12:16:24.091Z,24.33
2019-01-30T12:19:29.672Z,24.31
2019-01-30T12:22:35.192Z,24.32
2019-01-30T12:25:38.747Z,24.32
2019-01-30T12:28:42.216Z,24.33
2019-01-30T12:31:46.031Z,24.31
2019-01-30T12:34:49.405Z,24.35
2019-01-30T12:37:53.925Z,24.35
2019-01-30T12:40:59.507Z,24.35
2019-01-30T12:44:03.005Z,24.38
2019-01-30T12:47:06.478Z,24.42
2019-01-30T12:50:10.031Z,24.42
2019-01-30T12:53:13.467Z,24.43
2019-01-30T12:56:17.002Z,24.44
2019-01-30T12:59:20.492Z,24.40
2019-01-30T13:02:24.007Z,24.41
2019-01-30T13:05:27.812Z,24.39
2019-01-30T13:08:31.395Z,24.39
2019-01-30T13:11:34.901Z,24.40
2019-01-30T13:14:38.414Z,24.40
2019-01-30T13:17:41.912Z,24.45
2019-01-30T13:20:45.414Z,24.47
2019-01-30T13:23:48.905Z,24.48
2019-01-30T13:26:53.442Z,24.49
2019-01-30T13:29:56.933Z,24.51
2019-01-30T13:33:00.432Z,24.52
2019-01-30T13:36:03.950Z,24.52
2019-01-30T13:39:09.663Z,24.56
2019-01-30T13:42:13.218Z,24.57
2019-01-30T13:45:16.685Z,24.55
2019-01-30T13:48:21.137Z,24.55
2019-01-30T13:51:25.753Z,24.57
2019-01-30T13:54:29.302Z,24.58
2019-01-30T13:57:32.769Z,24.58
2019-01-30T14:00:37.025Z,24.60
2019-01-30T14:03:40.673Z,24.57
2019-01-30T14:06:44.251Z,24.57
2019-01-30T14:09:47.769Z,24.53
2019-01-30T14:12:51.581Z,24.53
2019-01-30T14:15:55.278Z,24.50
2019-01-30T14:18:58.923Z,24.48
2019-01-30T14:22:02.408Z,24.48
2019-01-30T14:25:06.613Z,24.44
2019-01-30T14:28:10.207Z,24.45
2019-01-30T14:31:13.847Z,24.43
2019-01-30T14:34:17.415Z,24.42
2019-01-30T14:37:20.974Z,24.42
2019-01-30T14:40:24.460Z,24.41
2019-01-30T14:43:27.954Z,24.40
2019-01-30T14:46:31.555Z,24.40
2019-01-30T14:49:35.123Z,24.37
2019-01-30T14:52:38.656Z,24.36
2019-01-30T14:55:42.138Z,24.37
2019-01-30T14:58:45.652Z,24.33
2019-01-30T15:01:49.482Z,24.33
2019-01-30T15:04:53.884Z,24.31
2019-01-30T15:07:59.448Z,24.32
2019-01-30T15:11:03.002Z,24.31
2019-01-30T15:14:07.884Z,24.32
2019-01-30T15:17:11.364Z,24.32
2019-01-30T15:20:28.361Z,24.28
2019-01-30T15:23:31.902Z,24.29
2019-01-30T15:26:35.413Z,24.27
2019-01-30T15:29:38.924Z,24.27
2019-01-30T15:32:42.398Z,24.26
2019-01-30T15:35:46.928Z,24.26
2019-01-30T15:38:50.400Z,24.26
2019-01-30T15:41:53.953Z,24.25
2019-01-30T15:44:57.394Z,24.24
2019-01-30T15:48:00.898Z,24.22
2019-01-30T15:51:04.377Z,24.19
2019-01-30T15:54:07.915Z,24.18
2019-01-30T15:57:12.407Z,24.20
2019-01-30T16:00:22.757Z,24.01
2019-01-30T16:03:27.283Z,23.90
2019-01-30T16:06:30.689Z,23.82
2019-01-30T16:09:34.185Z,23.84
2019-01-30T16:12:37.700Z,23.82
2019-01-30T16:15:48.283Z,23.82
2019-01-30T16:18:51.869Z,23.83
2019-01-30T16:21:55.373Z,23.84
2019-01-30T16:25:08.726Z,23.84
2019-01-30T16:28:04.614Z,23.85
2019-01-30T16:31:08.145Z,23.88
2019-01-30T16:34:11.629Z,23.87
2019-01-30T16:37:15.131Z,23.88
2019-01-30T16:40:18.653Z,23.88
2019-01-30T16:43:22.144Z,23.88
2019-01-30T16:46:26.666Z,23.87
2019-01-30T16:49:31.178Z,23.90
2019-01-30T16:52:35.715Z,23.88
2019-01-30T16:55:39.210Z,23.88
2019-01-30T16:58:43.777Z,23.91
2019-01-30T17:01:47.245Z,23.90
2019-01-30T17:04:50.670Z,23.90
2019-01-30T17:07:54.138Z,23.91
2019-01-30T17:10:57.850Z,23.92
2019-01-30T17:14:01.517Z,24.00
2019-01-30T17:17:04.934Z,23.95
2019-01-30T17:20:15.541Z,23.95
2019-01-30T17:23:19.075Z,23.98
2019-01-30T17:26:22.590Z,23.98
2019-01-30T17:29:26.036Z,24.00
2019-01-30T17:32:29.685Z,24.02
2019-01-30T17:35:33.135Z,23.98
2019-01-30T17:38:36.636Z,23.99
2019-01-30T17:41:40.097Z,24.01
2019-01-30T17:44:43.591Z,24.04
2019-01-30T17:47:48.160Z,24.03
2019-01-30T17:50:51.560Z,24.03
2019-01-30T17:53:55.164Z,24.03
2019-01-30T17:56:58.582Z,24.02
2019-01-30T18:00:02.137Z,24.02
2019-01-30T18:03:05.558Z,24.05
2019-01-30T18:06:09.173Z,24.04
2019-01-30T18:09:12.587Z,24.03
2019-01-30T18:12:16.076Z,24.04
2019-01-30T18:15:19.682Z,24.05
2019-01-30T18:18:23.112Z,24.06
2019-01-30T18:21:26.566Z,24.06
2019-01-30T18:24:30.066Z,24.07
2019-01-30T18:27:33.683Z,24.06
2019-01-30T18:30:37.110Z,24.07
2019-01-30T18:33:40.587Z,24.09
2019-01-30T18:36:44.185Z,24.09
2019-01-30T18:39:49.660Z,24.10
2019-01-30T18:42:52.802Z,24.10
2019-01-30T18:45:56.315Z,24.09
2019-01-30T18:48:59.830Z,24.11
2019-01-30T18:52:03.336Z,24.10
2019-01-30T18:55:06.850Z,24.11
2019-01-30T18:58:10.332Z,24.11
2019-01-30T19:01:13.822Z,24.12
2019-01-30T19:04:17.339Z,24.11
2019-01-30T19:07:20.829Z,24.13
2019-01-30T19:10:24.446Z,24.12
2019-01-30T19:13:27.985Z,24.13
2019-01-30T19:16:31.459Z,24.13
2019-01-30T19:19:34.936Z,24.14
2019-01-30T19:22:38.551Z,24.13
2019-01-30T19:25:41.958Z,24.14
2019-01-30T19:28:45.449Z,24.14
2019-01-30T19:31:49.103Z,24.15
2019-01-30T19:34:52.563Z,24.14
2019-01-30T19:37:56.042Z,24.15
2019-01-30T19:40:59.582Z,24.16
2019-01-30T19:44:03.096Z,24.16
2019-01-30T19:47:06.575Z,24.15
2019-01-30T19:50:13.452Z,24.15
2019-01-30T19:53:16.915Z,24.15
2019-01-30T19:56:20.435Z,24.17
2019-01-30T19:59:24.027Z,24.16
2019-01-30T20:02:27.559Z,24.18
2019-01-30T20:05:31.072Z,24.17
2019-01-30T20:08:34.565Z,24.16
2019-01-30T20:11:37.975Z,24.17
2019-01-30T20:14:41.465Z,24.16
2019-01-30T20:17:44.942Z,24.16
2019-01-30T20:20:48.560Z,24.16
2019-01-30T20:23:53.082Z,24.17
2019-01-30T20:26:56.572Z,24.19
2019-01-30T20:29:59.987Z,24.10
2019-01-30T20:33:03.555Z,24.04
2019-01-30T20:36:07.070Z,23.98
2019-01-30T20:39:10.604Z,23.93
2019-01-30T20:42:14.074Z,23.90
2019-01-30T20:45:19.773Z,23.86
2019-01-30T20:48:23.230Z,23.83
2019-01-30T20:51:26.818Z,23.79
2019-01-30T20:54:30.236Z,23.78
2019-01-30T20:57:33.835Z,23.77
2019-01-30T21:00:38.367Z,23.75
2019-01-30T21:03:41.850Z,23.70
2019-01-30T21:06:45.374Z,23.68
2019-01-30T21:09:48.789Z,23.67
2019-01-30T21:12:52.373Z,23.64
2019-01-30T21:15:55.896Z,23.62
2019-01-30T21:18:59.365Z,23.57
2019-01-30T21:22:02.893Z,23.55
2019-01-30T21:25:09.559Z,23.54
2019-01-30T21:28:13.082Z,23.51
2019-01-30T21:31:16.534Z,23.49
2019-01-30T21:34:20.147Z,23.47
2019-01-30T21:37:23.641Z,23.46
2019-01-30T21:40:27.174Z,23.43
2019-01-30T21:43:33.983Z,23.43
2019-01-30T21:46:37.436Z,23.41
2019-01-30T21:49:40.924Z,23.39
2019-01-30T21:52:44.390Z,23.38
2019-01-30T21:55:47.862Z,23.37
2019-01-30T21:58:51.445Z,23.34
2019-01-30T22:02:07.716Z,23.33
2019-01-30T22:05:02.338Z,23.32
2019-01-30T22:08:06.864Z,23.29
2019-01-30T22:11:10.288Z,23.28
2019-01-30T22:14:13.767Z,23.28
2019-01-30T22:17:17.362Z,23.26
2019-01-30T22:20:22.696Z,23.23
2019-01-30T22:23:26.118Z,23.24
2019-01-30T22:26:29.601Z,23.22
2019-01-30T22:29:33.212Z,23.20
2019-01-30T22:32:36.627Z,23.19
2019-01-30T22:35:40.093Z,23.16
2019-01-30T22:38:44.534Z,23.16
2019-01-30T22:41:48.013Z,23.16
2019-01-30T22:44:51.521Z,23.15
2019-01-30T22:47:55.023Z,23.15
2019-01-30T22:50:58.450Z,23.14
2019-01-30T22:54:01.932Z,23.13
2019-01-30T22:57:07.389Z,23.12
2019-01-30T23:00:19.385Z,23.12
2019-01-30T23:03:37.754Z,23.11
2019-01-30T23:07:19.846Z,23.11
2019-01-30T23:11:12.905Z,23.09
2019-01-30T23:14:31.552Z,23.08
2019-01-30T23:18:06.179Z,23.08
2019-01-30T23:21:14.588Z,23.07
2019-01-30T23:25:08.165Z,23.07
2019-01-30T23:28:54.888Z,23.05
2019-01-30T23:32:29.421Z,23.04
2019-01-30T23:36:14.991Z,23.03
2019-01-30T23:39:54.654Z,23.01
2019-01-30T23:43:35.695Z,23.01
2019-01-30T23:47:42.822Z,23.00
2019-01-30T23:51:06.795Z,22.98
2019-01-30T23:54:42.927Z,22.98
2019-01-30T23:58:37.914Z,22.96
